createdAt,value
2018-10-03T00:00:27.150Z,67.32
2018-10-03T00:02:55.333Z,67.18
2018-10-03T00:05:23.844Z,67.14
2018-10-03T00:07:52.119Z,67.03
2018-10-03T00:10:20.403Z,67.34
2018-10-03T00:12:49.572Z,67.42
2018-10-03T00:15:19.767Z,67.78
2018-10-03T00:17:49.331Z,67.59
2018-10-03T00:20:19.276Z,67.45
2018-10-03T00:22:47.526Z,67.74
2018-10-03T00:25:15.795Z,67.62
2018-10-03T00:27:44.380Z,67.49
2018-10-03T00:30:12.577Z,67.85
2018-10-03T00:32:40.802Z,67.43
2018-10-03T00:35:09.068Z,67.33
2018-10-03T00:37:37.253Z,67.56
2018-10-03T00:40:05.628Z,66.84
2018-10-03T00:42:33.872Z,66.93
2018-10-03T00:45:02.383Z,66.41
2018-10-03T00:47:31.228Z,67.11
2018-10-03T00:49:59.693Z,67.14
2018-10-03T00:52:28.331Z,67.54
2018-10-03T00:54:57.087Z,67.48
2018-10-03T00:57:25.501Z,68.00
2018-10-03T00:59:53.736Z,68.10
2018-10-03T01:02:22.056Z,68.44
2018-10-03T01:04:50.915Z,68.75
2018-10-03T01:07:19.132Z,68.09
2018-10-03T01:09:47.403Z,68.52
2018-10-03T01:12:16.553Z,69.00
2018-10-03T01:14:44.776Z,68.28
2018-10-03T01:17:13.323Z,68.25
2018-10-03T01:19:41.552Z,68.14
2018-10-03T01:22:10.105Z,67.95
2018-10-03T01:24:38.402Z,67.88
2018-10-03T01:27:07.140Z,67.82
2018-10-03T01:29:35.399Z,68.64
2018-10-03T01:32:03.660Z,68.35
2018-10-03T01:34:31.933Z,68.60
2018-10-03T01:37:00.240Z,68.29
2018-10-03T01:39:28.518Z,68.26
2018-10-03T01:41:56.906Z,68.40
2018-10-03T01:44:25.182Z,68.80
2018-10-03T01:46:54.007Z,68.65
2018-10-03T01:49:22.241Z,68.78
2018-10-03T01:51:50.502Z,68.52
2018-10-03T01:54:18.758Z,68.77
2018-10-03T01:56:47.620Z,69.14
2018-10-03T01:59:16.463Z,69.01
2018-10-03T02:01:46.300Z,69.14
2018-10-03T02:04:15.114Z,68.72
2018-10-03T02:06:43.355Z,69.08
2018-10-03T02:09:12.546Z,69.02
2018-10-03T02:11:40.863Z,69.32
2018-10-03T02:14:09.890Z,69.55
2018-10-03T02:16:39.090Z,69.16
2018-10-03T02:19:07.296Z,69.30
2018-10-03T02:21:35.588Z,69.53
2018-10-03T02:24:04.102Z,70.14
2018-10-03T02:26:32.734Z,69.59
2018-10-03T02:29:02.272Z,69.35
2018-10-03T02:31:30.719Z,69.28
2018-10-03T02:33:58.997Z,69.19
2018-10-03T02:36:28.096Z,69.39
2018-10-03T02:38:56.778Z,69.03
2018-10-03T02:41:25.119Z,69.40
2018-10-03T02:43:53.562Z,69.58
2018-10-03T02:46:22.350Z,69.14
2018-10-03T02:48:50.711Z,69.07
2018-10-03T02:51:19.022Z,69.32
2018-10-03T02:53:47.730Z,69.26
2018-10-03T02:56:15.952Z,68.97
2018-10-03T02:58:45.242Z,68.96
2018-10-03T03:01:14.804Z,68.98
2018-10-03T03:03:43.086Z,69.39
2018-10-03T03:06:12.430Z,69.56
2018-10-03T03:08:41.385Z,70.06
2018-10-03T03:11:10.507Z,70.72
2018-10-03T03:13:38.949Z,70.72
2018-10-03T03:16:07.753Z,70.84
2018-10-03T03:18:36.062Z,71.42
2018-10-03T03:21:04.354Z,71.44
2018-10-03T03:23:32.908Z,71.20
2018-10-03T03:26:01.186Z,71.63
2018-10-03T03:28:29.468Z,72.44
2018-10-03T03:30:57.741Z,72.05
2018-10-03T03:33:26.071Z,72.59
2018-10-03T03:35:54.367Z,72.90
2018-10-03T03:38:22.600Z,73.85
2018-10-03T03:40:50.920Z,74.26
2018-10-03T03:43:19.155Z,74.16
2018-10-03T03:45:48.258Z,74.18
2018-10-03T03:48:16.600Z,74.74
2018-10-03T03:50:44.842Z,74.23
2018-10-03T03:53:13.682Z,74.64
2018-10-03T03:55:42.180Z,74.55
2018-10-03T03:58:10.679Z,74.45
2018-10-03T04:00:38.945Z,74.87
2018-10-03T04:03:07.997Z,74.75
2018-10-03T04:05:36.916Z,75.35
2018-10-03T04:08:05.257Z,75.17
2018-10-03T04:10:34.784Z,74.85
2018-10-03T04:13:03.415Z,75.12
2018-10-03T04:15:31.990Z,74.41
2018-10-03T04:18:00.637Z,74.08
2018-10-03T04:20:29.422Z,73.92
2018-10-03T04:22:58.061Z,74.28
2018-10-03T04:25:26.331Z,73.69
2018-10-03T04:27:54.872Z,73.41
2018-10-03T04:30:23.448Z,72.83
2018-10-03T04:32:51.680Z,72.75
2018-10-03T04:35:21.000Z,72.99
2018-10-03T04:37:49.232Z,72.79
2018-10-03T04:40:17.817Z,72.50
2018-10-03T04:42:46.028Z,72.91
2018-10-03T04:45:14.910Z,72.54
2018-10-03T04:47:43.721Z,72.06
2018-10-03T04:50:12.243Z,72.67
2018-10-03T04:52:40.838Z,72.58
2018-10-03T04:55:09.323Z,72.88
2018-10-03T04:57:38.083Z,73.11
2018-10-03T05:00:06.792Z,73.34
2018-10-03T05:02:35.051Z,72.70
2018-10-03T05:05:03.344Z,73.07
2018-10-03T05:07:32.233Z,73.54
2018-10-03T05:10:00.577Z,74.07
2018-10-03T05:12:29.068Z,74.34
2018-10-03T05:14:57.351Z,74.06
2018-10-03T05:17:25.656Z,73.72
2018-10-03T05:19:54.321Z,74.58
2018-10-03T05:22:22.570Z,74.91
2018-10-03T05:24:50.892Z,75.04
2018-10-03T05:27:19.167Z,75.20
2018-10-03T05:29:47.714Z,75.45
2018-10-03T05:32:16.340Z,75.98
2018-10-03T05:34:45.088Z,75.96
2018-10-03T05:37:13.661Z,76.49
2018-10-03T05:39:42.590Z,75.37
2018-10-03T05:42:11.076Z,75.68
2018-10-03T05:44:39.368Z,75.65
2018-10-03T05:47:08.509Z,76.00
2018-10-03T05:49:37.304Z,75.78
2018-10-03T05:52:05.555Z,75.28
2018-10-03T05:54:33.810Z,75.07
2018-10-03T05:57:02.749Z,75.60
2018-10-03T05:59:31.278Z,75.14
2018-10-03T06:01:59.904Z,74.92
2018-10-03T06:04:28.119Z,74.74
2018-10-03T06:06:56.729Z,75.37
2018-10-03T06:09:25.001Z,74.79
2018-10-03T06:11:53.523Z,74.93
2018-10-03T06:14:21.750Z,74.62
2018-10-03T06:16:50.022Z,75.09
2018-10-03T06:19:18.802Z,74.48
2018-10-03T06:21:47.424Z,74.74
2018-10-03T06:24:16.659Z,74.39
2018-10-03T06:26:44.866Z,74.11
2018-10-03T06:29:13.566Z,74.27
2018-10-03T06:31:41.955Z,74.39
2018-10-03T06:34:10.436Z,73.88
2018-10-03T06:36:39.893Z,74.63
2018-10-03T06:39:09.572Z,74.45
2018-10-03T06:41:39.369Z,74.87
2018-10-03T06:44:07.692Z,74.72
2018-10-03T06:46:36.292Z,74.38
2018-10-03T06:49:04.561Z,74.82
2018-10-03T06:51:33.756Z,74.74
2018-10-03T06:54:02.139Z,74.51
2018-10-03T06:56:30.716Z,74.53
2018-10-03T06:59:00.678Z,75.06
2018-10-03T07:01:29.473Z,75.27
2018-10-03T07:03:57.983Z,75.97
2018-10-03T07:06:26.922Z,76.81
2018-10-03T07:08:55.863Z,76.53
2018-10-03T07:11:25.483Z,77.04
2018-10-03T07:13:53.724Z,75.73
2018-10-03T07:16:22.777Z,76.01
2018-10-03T07:18:51.037Z,77.02
2018-10-03T07:21:19.976Z,78.53
2018-10-03T07:23:48.184Z,79.70
2018-10-03T07:26:16.555Z,80.42
2018-10-03T07:28:45.124Z,81.34
2018-10-03T07:31:13.299Z,81.33
2018-10-03T07:33:42.120Z,81.11
2018-10-03T07:36:11.242Z,80.88
2018-10-03T07:38:39.560Z,80.73
2018-10-03T07:41:07.763Z,81.88
2018-10-03T07:43:36.659Z,81.07
2018-10-03T07:46:04.852Z,81.86
2018-10-03T07:48:33.200Z,82.68
2018-10-03T07:51:02.004Z,82.78
2018-10-03T07:53:30.596Z,83.13
2018-10-03T07:55:59.080Z,82.48
2018-10-03T07:58:27.366Z,81.83
2018-10-03T08:00:55.946Z,81.75
2018-10-03T08:03:24.750Z,82.15
2018-10-03T08:05:53.199Z,81.95
2018-10-03T08:08:21.685Z,81.47
2018-10-03T08:10:50.255Z,81.87
2018-10-03T08:13:18.500Z,80.85
2018-10-03T08:15:46.769Z,81.46
2018-10-03T08:18:15.114Z,80.01
2018-10-03T08:20:43.791Z,79.04
2018-10-03T08:23:12.353Z,77.90
2018-10-03T08:25:40.589Z,77.99
2018-10-03T08:28:08.848Z,77.30
2018-10-03T08:30:37.804Z,77.19
2018-10-03T08:33:06.261Z,77.27
2018-10-03T08:35:34.676Z,77.04
2018-10-03T08:38:03.198Z,76.89
2018-10-03T08:40:31.535Z,76.60
2018-10-03T08:42:59.800Z,75.87
2018-10-03T08:45:28.391Z,75.92
2018-10-03T08:48:08.164Z,75.19
2018-10-03T08:50:38.103Z,74.17
2018-10-03T08:53:06.764Z,73.42
2018-10-03T08:55:35.015Z,73.00
2018-10-03T08:58:03.429Z,71.41
2018-10-03T09:00:35.258Z,69.70
2018-10-03T09:03:10.542Z,70.99
2018-10-03T09:05:38.833Z,70.35
2018-10-03T09:08:12.862Z,69.10
2018-10-03T09:10:57.219Z,68.46
2018-10-03T09:13:25.613Z,68.93
2018-10-03T09:15:53.913Z,68.36
2018-10-03T09:18:22.779Z,68.32
2018-10-03T09:20:51.998Z,67.41
2018-10-03T09:23:20.961Z,68.24
2018-10-03T09:25:50.206Z,65.64
2018-10-03T09:28:19.306Z,65.53
2018-10-03T09:30:48.593Z,66.52
2018-10-03T09:33:17.045Z,66.51
2018-10-03T09:35:45.507Z,66.86
2018-10-03T09:38:13.693Z,65.59
2018-10-03T09:40:41.947Z,65.77
2018-10-03T09:43:10.529Z,64.96
2018-10-03T09:45:39.489Z,64.61
2018-10-03T09:48:08.569Z,63.86
2018-10-03T09:50:37.716Z,62.35
2018-10-03T09:53:07.509Z,61.94
2018-10-03T09:55:35.944Z,60.84
2018-10-03T09:58:04.972Z,61.35
2018-10-03T10:00:38.963Z,60.87
2018-10-03T10:03:07.825Z,61.19
2018-10-03T10:05:36.103Z,61.88
2018-10-03T10:08:05.031Z,59.60
2018-10-03T10:10:33.400Z,59.68
2018-10-03T10:13:01.955Z,59.35
2018-10-03T10:15:30.267Z,60.25
2018-10-03T10:17:59.968Z,59.35
2018-10-03T10:20:28.556Z,60.69
2018-10-03T10:22:57.418Z,60.61
2018-10-03T10:25:25.636Z,60.51
2018-10-03T10:27:54.348Z,58.70
2018-10-03T10:30:22.570Z,59.21
2018-10-03T10:32:51.486Z,58.98
2018-10-03T10:35:20.074Z,59.81
2018-10-03T10:37:48.462Z,59.42
2018-10-03T10:40:16.798Z,57.86
2018-10-03T10:42:45.095Z,57.61
2018-10-03T10:45:13.388Z,55.98
2018-10-03T10:47:42.317Z,56.61
2018-10-03T10:50:11.362Z,56.68
2018-10-03T10:52:41.072Z,56.43
2018-10-03T10:55:09.453Z,54.17
2018-10-03T10:57:38.174Z,53.19
2018-10-03T11:00:06.500Z,52.93
2018-10-03T11:02:35.358Z,50.55
2018-10-03T11:05:04.183Z,51.96
2018-10-03T11:10:12.593Z,50.96
2018-10-03T11:12:41.949Z,51.47
2018-10-03T11:15:10.886Z,52.22
2018-10-03T11:17:39.467Z,50.24
2018-10-03T11:20:07.760Z,51.10
2018-10-03T11:22:36.649Z,51.54
2018-10-03T11:25:04.994Z,50.06
2018-10-03T11:27:33.947Z,50.40
2018-10-03T11:30:02.515Z,50.71
2018-10-03T11:32:30.808Z,49.54
2018-10-03T11:35:00.059Z,49.15
2018-10-03T11:37:28.709Z,49.35
2018-10-03T11:39:57.317Z,49.76
2018-10-03T11:42:25.660Z,49.41
2018-10-03T11:44:54.226Z,48.61
2018-10-03T11:47:22.523Z,48.55
2018-10-03T11:49:51.187Z,50.64
2018-10-03T11:52:19.785Z,50.30
2018-10-03T11:54:48.631Z,52.17
2018-10-03T11:57:17.364Z,51.01
2018-10-03T11:59:45.793Z,50.57
2018-10-03T12:02:14.570Z,49.61
2018-10-03T12:04:43.315Z,46.06
2018-10-03T12:07:11.771Z,48.12
2018-10-03T12:09:40.254Z,48.63
2018-10-03T12:12:08.958Z,50.48
2018-10-03T12:14:37.492Z,51.59
2018-10-03T12:17:05.805Z,52.07
2018-10-03T12:19:35.354Z,53.32
2018-10-03T12:22:04.349Z,55.55
2018-10-03T12:24:32.967Z,55.40
2018-10-03T12:27:04.003Z,55.23
2018-10-03T12:29:33.227Z,56.06
2018-10-03T12:32:02.429Z,55.39
2018-10-03T12:34:31.657Z,55.33
2018-10-03T12:37:00.487Z,55.72
2018-10-03T12:39:28.863Z,55.60
2018-10-03T12:41:58.514Z,55.52
2018-10-03T12:44:27.298Z,56.34
2018-10-03T12:46:55.535Z,56.45
2018-10-03T12:49:24.177Z,55.91
2018-10-03T12:51:53.224Z,56.15
2018-10-03T12:54:22.985Z,55.82
2018-10-03T12:56:51.965Z,56.58
2018-10-03T12:59:22.014Z,56.67
2018-10-03T13:01:50.386Z,56.57
2018-10-03T13:04:19.451Z,55.18
2018-10-03T13:06:48.154Z,55.59
2018-10-03T13:09:16.471Z,56.38
2018-10-03T13:11:46.848Z,56.82
2018-10-03T13:14:15.937Z,57.56
2018-10-03T13:16:45.710Z,57.86
2018-10-03T13:19:14.397Z,58.14
2018-10-03T13:21:43.137Z,58.28
2018-10-03T13:24:12.360Z,57.90
2018-10-03T13:26:42.153Z,58.64
2018-10-03T13:29:11.544Z,59.07
2018-10-03T13:31:39.894Z,58.73
2018-10-03T13:34:09.492Z,58.99
2018-10-03T13:36:37.926Z,58.20
2018-10-03T13:39:10.539Z,58.61
2018-10-03T13:41:39.132Z,58.15
2018-10-03T13:44:08.151Z,57.43
2018-10-03T13:46:36.613Z,57.03
2018-10-03T13:49:06.150Z,55.98
2018-10-03T13:51:35.876Z,55.94
2018-10-03T13:54:05.051Z,54.69
2018-10-03T13:56:35.437Z,55.13
2018-10-03T13:59:03.846Z,54.88
2018-10-03T14:01:32.980Z,54.80
2018-10-03T14:04:09.385Z,54.80
2018-10-03T14:06:39.999Z,53.94
2018-10-03T14:09:10.790Z,48.50
2018-10-03T14:11:39.305Z,44.30
2018-10-03T14:14:08.210Z,43.46
2018-10-03T14:16:36.529Z,43.34
2018-10-03T14:19:07.583Z,41.48
2018-10-03T14:21:38.750Z,42.31
2018-10-03T14:24:07.441Z,47.77
2018-10-03T14:26:36.096Z,46.43
2018-10-03T14:29:04.481Z,46.14
2018-10-03T14:31:32.803Z,45.18
2018-10-03T14:34:01.995Z,42.09
2018-10-03T14:36:30.590Z,40.70
2018-10-03T14:39:00.125Z,38.80
2018-10-03T14:41:28.635Z,37.52
2018-10-03T14:43:58.694Z,34.73
2018-10-03T14:46:27.050Z,34.95
2018-10-03T14:48:57.128Z,37.18
2018-10-03T14:51:26.775Z,37.39
2018-10-03T14:53:56.015Z,37.07
2018-10-03T14:56:24.753Z,36.37
2018-10-03T14:58:54.417Z,33.31
2018-10-03T15:01:22.946Z,36.07
2018-10-03T15:03:51.640Z,33.96
2018-10-03T15:06:19.938Z,35.68
2018-10-03T15:08:49.273Z,38.08
2018-10-03T15:11:17.907Z,37.44
2018-10-03T15:13:46.410Z,37.26
2018-10-03T15:16:15.360Z,38.75
2018-10-03T15:18:44.432Z,40.17
2018-10-03T15:21:13.872Z,39.02
2018-10-03T15:23:43.046Z,38.30
2018-10-03T15:26:11.495Z,37.69
2018-10-03T15:28:39.892Z,39.67
2018-10-03T15:31:09.359Z,42.36
2018-10-03T15:33:37.750Z,44.69
2018-10-03T15:36:06.293Z,44.89
2018-10-03T15:38:35.152Z,48.21
2018-10-03T15:41:03.848Z,50.13
2018-10-03T15:43:33.252Z,51.08
2018-10-03T15:46:06.003Z,51.74
2018-10-03T15:48:34.567Z,53.46
2018-10-03T15:51:03.246Z,53.55
2018-10-03T15:53:31.971Z,54.22
2018-10-03T15:56:03.025Z,56.49
2018-10-03T15:58:32.401Z,55.04
2018-10-03T16:01:00.864Z,54.53
2018-10-03T16:03:31.306Z,54.35
2018-10-03T16:05:59.848Z,55.19
2018-10-03T16:08:28.298Z,56.66
2018-10-03T16:10:57.245Z,56.47
2018-10-03T16:13:25.609Z,57.09
2018-10-03T16:15:54.887Z,56.67
2018-10-03T16:18:23.098Z,56.67
2018-10-03T16:20:52.548Z,58.81
2018-10-03T16:23:20.936Z,59.76
2018-10-03T16:25:49.458Z,59.35
2018-10-03T16:28:17.785Z,60.61
2018-10-03T16:30:46.052Z,61.68
2018-10-03T16:33:14.593Z,61.91
2018-10-03T16:35:42.829Z,61.70
2018-10-03T16:38:11.363Z,62.01
2018-10-03T16:40:39.940Z,62.78
2018-10-03T16:43:08.484Z,63.37
2018-10-03T16:45:37.087Z,63.65
2018-10-03T16:48:06.681Z,64.41
2018-10-03T16:50:35.233Z,64.44
2018-10-03T16:53:04.292Z,65.04
2018-10-03T16:55:32.563Z,65.75
2018-10-03T16:58:01.149Z,66.83
2018-10-03T17:00:30.309Z,66.98
2018-10-03T17:02:59.176Z,66.72
2018-10-03T17:05:28.024Z,67.24
2018-10-03T17:07:56.474Z,67.66
2018-10-03T17:10:24.930Z,67.79
2018-10-03T17:12:54.156Z,68.78
2018-10-03T17:15:22.457Z,69.38
2018-10-03T17:17:51.293Z,70.15
2018-10-03T17:20:19.863Z,69.90
2018-10-03T17:22:48.556Z,69.32
2018-10-03T17:25:17.519Z,69.67
2018-10-03T17:27:46.489Z,69.80
2018-10-03T17:30:14.696Z,70.04
2018-10-03T17:32:43.046Z,70.34
2018-10-03T17:35:11.290Z,70.79
2018-10-03T17:37:40.300Z,71.38
2018-10-03T17:40:08.719Z,71.65
2018-10-03T17:42:37.064Z,71.30
2018-10-03T17:45:05.374Z,71.90
2018-10-03T17:47:33.597Z,72.33
2018-10-03T17:50:02.345Z,72.75
2018-10-03T17:52:31.134Z,71.85
2018-10-03T17:54:59.425Z,72.02
2018-10-03T17:57:28.636Z,72.02
2018-10-03T17:59:57.104Z,72.58
2018-10-03T18:02:25.669Z,73.22
2018-10-03T18:04:54.014Z,73.38
2018-10-03T18:07:23.182Z,73.64
2018-10-03T18:09:54.352Z,74.50
2018-10-03T18:12:22.715Z,74.23
2018-10-03T18:14:52.151Z,74.14
2018-10-03T18:17:20.900Z,74.75
2018-10-03T18:19:49.618Z,74.92
2018-10-03T18:22:18.154Z,75.04
2018-10-03T18:24:50.547Z,75.39
2018-10-03T18:27:19.986Z,75.33
2018-10-03T18:29:48.924Z,74.89
2018-10-03T18:32:18.445Z,75.21
2018-10-03T18:34:47.809Z,75.41
2018-10-03T18:37:23.183Z,75.30
2018-10-03T18:39:52.331Z,75.52
2018-10-03T18:42:20.656Z,75.54
2018-10-03T18:44:49.335Z,75.50
2018-10-03T18:47:17.742Z,75.16
2018-10-03T18:49:49.492Z,75.66
2018-10-03T18:52:18.767Z,75.52
2018-10-03T18:54:47.470Z,75.60
2018-10-03T18:57:17.155Z,75.46
2018-10-03T18:59:45.525Z,75.97
2018-10-03T19:02:21.261Z,76.68
2018-10-03T19:04:52.035Z,76.86
2018-10-03T19:07:24.264Z,77.17
2018-10-03T19:09:55.393Z,77.15
2018-10-03T19:12:25.027Z,77.17
2018-10-03T19:14:53.400Z,77.30
2018-10-03T19:17:22.941Z,77.44
2018-10-03T19:19:52.174Z,77.83
2018-10-03T19:22:23.842Z,77.89
2018-10-03T19:24:52.609Z,77.92
2018-10-03T19:27:22.858Z,78.35
2018-10-03T19:29:51.875Z,78.72
2018-10-03T19:32:22.601Z,78.44
2018-10-03T19:34:50.976Z,78.59
2018-10-03T19:37:19.876Z,78.34
2018-10-03T19:39:48.247Z,78.92
2018-10-03T19:42:18.333Z,78.65
2018-10-03T19:44:46.585Z,78.89
2018-10-03T19:47:15.775Z,79.72
2018-10-03T19:49:44.689Z,79.62
2018-10-03T19:52:13.072Z,79.20
2018-10-03T19:54:42.236Z,79.60
2018-10-03T19:57:11.335Z,79.58
2018-10-03T19:59:40.234Z,80.23
2018-10-03T20:02:09.639Z,80.01
2018-10-03T20:04:37.905Z,80.10
2018-10-03T20:07:06.690Z,80.31
2018-10-03T20:09:36.548Z,80.23
2018-10-03T20:12:11.653Z,79.57
2018-10-03T20:14:40.955Z,79.50
2018-10-03T20:17:10.436Z,80.15
2018-10-03T20:19:41.372Z,80.23
2018-10-03T20:22:11.963Z,81.16
2018-10-03T20:24:40.768Z,81.17
2018-10-03T20:27:09.953Z,80.98
2018-10-03T20:29:42.610Z,80.11
2018-10-03T20:32:10.830Z,79.61
2018-10-03T20:34:39.161Z,80.05
2018-10-03T20:37:07.894Z,80.60
2018-10-03T20:39:36.576Z,81.03
2018-10-03T20:42:05.504Z,82.25
2018-10-03T20:44:33.879Z,82.59
2018-10-03T20:47:03.079Z,82.17
2018-10-03T20:49:33.700Z,82.94
2018-10-03T20:52:05.690Z,83.12
2018-10-03T20:54:34.374Z,84.13
2018-10-03T20:57:02.795Z,84.58
2018-10-03T20:59:31.672Z,84.04
2018-10-03T21:02:00.139Z,84.68
2018-10-03T21:07:12.793Z,86.17
2018-10-03T21:09:41.661Z,86.75
2018-10-03T21:12:10.823Z,86.28
2018-10-03T21:14:40.351Z,85.97
2018-10-03T21:17:09.880Z,85.50
2018-10-03T21:19:38.908Z,85.42
2018-10-03T21:22:08.627Z,86.29
2018-10-03T21:24:37.673Z,85.54
2018-10-03T21:27:06.104Z,85.16
2018-10-03T21:29:34.646Z,83.21
2018-10-03T21:32:07.149Z,82.51
2018-10-03T21:34:35.670Z,82.34
2018-10-03T21:37:04.160Z,82.57
2018-10-03T21:39:32.563Z,83.14
2018-10-03T21:42:00.878Z,82.51
2018-10-03T21:44:29.454Z,83.22
2018-10-03T21:46:57.738Z,83.56
2018-10-03T21:49:26.309Z,83.98
2018-10-03T21:51:54.905Z,83.93
2018-10-03T21:54:23.604Z,83.45
2018-10-03T21:56:52.386Z,83.63
2018-10-03T21:59:20.747Z,84.32
2018-10-03T22:01:49.630Z,83.64
2018-10-03T22:04:17.836Z,84.36
2018-10-03T22:06:46.423Z,84.72
2018-10-03T22:09:14.976Z,84.66
2018-10-03T22:11:43.216Z,84.64
2018-10-03T22:14:11.794Z,84.11
2018-10-03T22:16:40.312Z,84.13
2018-10-03T22:19:09.154Z,84.00
2018-10-03T22:21:38.288Z,84.67
2018-10-03T22:24:06.607Z,85.77
2018-10-03T22:26:35.050Z,86.50
2018-10-03T22:29:03.533Z,85.94
2018-10-03T22:31:31.896Z,86.89
2018-10-03T22:34:00.168Z,85.45
2018-10-03T22:36:29.153Z,86.40
2018-10-03T22:38:57.646Z,86.81
2018-10-03T22:41:26.121Z,86.75
2018-10-03T22:43:54.652Z,87.85
2018-10-03T22:46:22.941Z,88.12
2018-10-03T22:48:51.304Z,88.78
2018-10-03T22:51:20.202Z,88.27
2018-10-03T22:53:48.422Z,88.22
2018-10-03T22:56:17.033Z,87.96
2018-10-03T22:58:45.621Z,87.57
2018-10-03T23:01:14.138Z,87.81
2018-10-03T23:03:42.435Z,88.56
2018-10-03T23:06:10.997Z,88.15
2018-10-03T23:08:40.013Z,88.45
2018-10-03T23:11:08.251Z,88.47
2018-10-03T23:13:36.459Z,88.52
2018-10-03T23:16:04.693Z,88.78
2018-10-03T23:18:33.260Z,89.39
2018-10-03T23:21:01.552Z,88.55
2018-10-03T23:23:29.872Z,88.85
2018-10-03T23:25:59.054Z,89.21
2018-10-03T23:28:27.801Z,89.27
2018-10-03T23:30:56.014Z,90.18
2018-10-03T23:33:24.526Z,90.78
2018-10-03T23:35:53.070Z,90.38
2018-10-03T23:38:21.316Z,89.85
2018-10-03T23:40:50.229Z,89.98
2018-10-03T23:43:18.480Z,90.54
2018-10-03T23:45:47.362Z,90.71
2018-10-03T23:48:15.615Z,90.25
2018-10-03T23:50:44.240Z,90.19
2018-10-03T23:53:12.745Z,90.19
2018-10-03T23:55:41.470Z,90.39
2018-10-03T23:58:10.108Z,90.46
